Time;durP1;ratioP1;P1;durP2;ratioP2;P2;SDS_P1;SDS_P2;PMS_P1;PMS_P2;Temp;Humidity;BMP_temperature;BMP_pressure;BME280_temperature;BME280_humidity;BME280_pressure;Samples;Min_cycle;Max_cycle;Signal;HPM_P1;HPM_P2
2023/02/24 00:01:23;;;;;;;19.73;6.82;;;;;;;8.94;65.45;100122.41;5034596;28;20065;-76
2023/02/24 00:03:57;;;;;;;21.98;9.40;;;;;;;8.92;64.95;100116.34;5021358;28;20061;-76
2023/02/24 00:06:34;;;;;;;26.38;12.43;;;;;;;8.91;65.91;100114.69;5032053;28;20443;-76
2023/02/24 00:09:07;;;;;;;20.90;7.90;;;;;;;8.91;66.37;100106.34;5035619;28;20092;-76
2023/02/24 00:11:35;;;;;;;18.40;7.10;;;;;;;8.94;66.04;100116.84;5034050;28;20053;-75
2023/02/24 00:14:06;;;;;;;21.02;7.00;;;;;;;8.96;66.27;100108.19;5034002;28;20449;-76
2023/02/24 00:16:36;;;;;;;21.83;7.93;;;;;;;9.00;66.27;100105.59;5033793;28;20545;-76
2023/02/24 00:19:08;;;;;;;25.83;7.95;;;;;;;9.02;65.99;100106.13;5032363;28;20056;-78
2023/02/24 00:21:36;;;;;;;20.08;7.28;;;;;;;9.00;67.17;100097.28;5033295;28;20054;-76
2023/02/24 00:24:05;;;;;;;25.40;8.20;;;;;;;8.96;65.95;100099.03;5033714;28;20045;-76
2023/02/24 00:26:42;;;;;;;22.50;8.95;;;;;;;8.99;66.87;100098.41;5034233;28;20644;-76
2023/02/24 00:29:22;;;;;;;25.27;10.25;;;;;;;8.97;66.11;100086.81;5034019;28;20056;-76
2023/02/24 00:31:57;;;;;;;32.83;11.88;;;;;;;9.02;66.52;100090.25;5034041;28;20053;-77
2023/02/24 00:34:26;;;;;;;26.92;10.20;;;;;;;9.01;65.91;100088.63;5030911;28;20057;-76
2023/02/24 00:36:57;;;;;;;21.42;9.13;;;;;;;9.03;67.45;100088.28;5033302;28;20056;-76
2023/02/24 00:39:40;;;;;;;27.48;11.63;;;;;;;9.07;65.77;100086.53;5032568;28;20053;-76
2023/02/24 00:45:04;;;;;;;22.40;10.00;;;;;;;9.01;65.46;100079.47;4999975;28;20061;-76
2023/02/24 00:47:46;;;;;;;31.90;9.95;;;;;;;9.06;65.87;100082.13;5032539;28;20241;-77
2023/02/24 00:50:18;;;;;;;22.58;9.70;;;;;;;9.05;65.21;100074.91;5031899;28;20113;-76
2023/02/24 00:52:51;;;;;;;22.20;8.85;;;;;;;9.03;64.90;100069.69;5033103;28;20058;-76
2023/02/24 00:55:22;;;;;;;21.83;7.57;;;;;;;9.03;65.35;100066.91;5033155;28;20509;-76
2023/02/24 00:57:50;;;;;;;26.00;7.32;;;;;;;9.02;65.07;100059.72;5021818;28;20045;-75
2023/02/24 01:00:24;;;;;;;23.00;7.75;;;;;;;9.00;64.60;100059.19;5032837;28;20068;-75
2023/02/24 01:03:12;;;;;;;24.92;8.27;;;;;;;8.99;64.92;100057.56;5032287;28;20053;-75
2023/02/24 01:05:40;;;;;;;26.05;8.82;;;;;;;8.93;64.46;100054.09;5051278;28;20429;-75
2023/02/24 01:08:12;;;;;;;23.50;8.25;;;;;;;8.92;65.63;100048.84;5052200;28;20056;-75
2023/02/24 01:11:35;;;;;;;22.10;7.78;;;;;;;8.94;65.49;100054.91;5052060;28;20048;-76
2023/02/24 01:13:35;;;;;;;21.20;7.00;;;;;;;8.94;66.28;100047.41;5049976;28;20061;-76
2023/02/24 01:16:08;;;;;;;23.85;7.78;;;;;;;8.99;65.05;100043.69;5051027;28;20443;-77
2023/02/24 01:18:36;;;;;;;24.15;6.63;;;;;;;9.00;64.55;100047.28;5049136;28;20060;-76
2023/02/24 01:21:04;;;;;;;26.55;6.90;;;;;;;8.98;64.35;100042.03;5052727;28;20152;-76
2023/02/24 01:23:31;;;;;;;17.63;6.22;;;;;;;8.93;64.91;100039.38;5052576;28;20048;-77
2023/02/24 01:26:02;;;;;;;21.63;5.97;;;;;;;8.93;65.57;100037.41;5051526;28;20049;-76
2023/02/24 01:28:30;;;;;;;22.20;7.00;;;;;;;8.93;64.51;100040.19;5051092;28;20064;-77
2023/02/24 01:31:05;;;;;;;16.83;5.25;;;;;;;8.94;64.67;100033.53;5052344;28;20060;-76
2023/02/24 01:33:36;;;;;;;18.67;4.40;;;;;;;8.91;64.42;100036.09;5051164;28;20053;-76
2023/02/24 01:36:14;;;;;;;18.77;5.70;;;;;;;8.87;63.71;100029.53;5051455;28;20048;-77
2023/02/24 01:38:44;;;;;;;20.85;6.40;;;;;;;8.85;63.81;100034.56;5052764;28;20076;-76
2023/02/24 01:41:16;;;;;;;19.45;6.00;;;;;;;8.86;64.73;100028.72;5036031;28;20111;-76
2023/02/24 01:43:57;;;;;;;20.50;5.57;;;;;;;8.84;65.11;100022.66;5052367;28;20052;-76
2023/02/24 01:46:25;;;;;;;16.58;5.65;;;;;;;8.82;64.66;100015.75;5052706;28;20049;-76
2023/02/24 01:48:59;;;;;;;22.20;6.55;;;;;;;8.81;65.06;100025.22;5051093;28;20041;-77
2023/02/24 01:51:35;;;;;;;18.75;5.30;;;;;;;8.74;65.00;100023.69;5032264;28;20606;-76
2023/02/24 01:54:05;;;;;;;17.30;5.07;;;;;;;8.75;65.69;100024.50;5034782;28;20073;-76
2023/02/24 01:56:33;;;;;;;15.43;5.22;;;;;;;8.75;65.72;100021.72;5051501;28;20045;-77
2023/02/24 01:59:02;;;;;;;17.42;5.25;;;;;;;8.72;64.89;100017.63;5052104;28;20064;-76
2023/02/24 02:01:38;;;;;;;16.45;4.28;;;;;;;8.76;65.15;100009.50;5052699;28;20053;-71
2023/02/24 02:08:03;;;;;;;15.02;3.83;;;;;;;8.66;63.97;100006.97;5026126;28;20065;-71
2023/02/24 02:13:44;;;;;;;13.75;4.07;;;;;;;8.53;64.83;100003.09;5027634;28;20060;-71
2023/02/24 02:16:46;;;;;;;17.23;5.25;;;;;;;8.52;64.42;99991.19;5015664;28;20058;-71
2023/02/24 02:23:02;;;;;;;16.98;4.35;;;;;;;8.48;64.84;99989.31;5028822;28;20072;-71
2023/02/24 02:25:46;;;;;;;11.50;3.83;;;;;;;8.49;65.15;99989.00;5013885;28;20049;-71
2023/02/24 02:28:33;;;;;;;17.90;5.13;;;;;;;8.44;64.42;99978.03;5031490;28;20065;-71
2023/02/24 02:31:38;;;;;;;15.60;4.20;;;;;;;8.43;65.20;99967.25;5031806;28;20061;-71
2023/02/24 02:34:33;;;;;;;20.95;5.20;;;;;;;8.44;64.66;99966.09;5028966;28;20053;-71
2023/02/24 02:37:13;;;;;;;17.52;4.88;;;;;;;8.37;65.36;99965.69;5013850;28;20502;-71
2023/02/24 02:40:00;;;;;;;17.30;4.90;;;;;;;8.40;64.32;99954.78;5037270;28;20057;-70
2023/02/24 02:42:32;;;;;;;15.07;6.05;;;;;;;8.38;64.21;99948.72;5028190;28;20054;-71
2023/02/24 02:45:06;;;;;;;21.40;5.43;;;;;;;8.43;64.48;99942.25;5031019;28;20053;-71
2023/02/24 02:47:40;;;;;;;25.80;9.55;;;;;;;8.43;64.11;99931.97;5030931;28;20046;-71
2023/02/24 02:50:19;;;;;;;19.42;7.95;;;;;;;8.43;64.43;99929.19;5029079;28;20065;-71
2023/02/24 02:52:52;;;;;;;17.70;6.20;;;;;;;8.44;63.92;99932.78;5030814;28;20049;-71
2023/02/24 02:55:30;;;;;;;14.60;5.13;;;;;;;8.45;64.80;99920.56;5030973;28;20479;-71
2023/02/24 02:58:07;;;;;;;14.98;4.28;;;;;;;8.45;63.32;99913.06;5030812;28;20052;-71
2023/02/24 03:01:00;;;;;;;13.07;4.70;;;;;;;8.45;64.29;99921.38;5030521;28;20053;-70
2023/02/24 03:03:31;;;;;;;18.52;5.40;;;;;;;8.40;64.38;99915.94;5031448;28;20056;-71
2023/02/24 03:06:10;;;;;;;19.33;6.10;;;;;;;8.41;63.52;99912.03;5030737;28;20555;-71
2023/02/24 03:08:42;;;;;;;16.23;6.43;;;;;;;8.40;63.57;99910.38;5030216;28;20053;-71
2023/02/24 03:11:18;;;;;;;18.33;6.45;;;;;;;8.37;63.98;99916.53;5030953;28;20522;-71
2023/02/24 03:14:21;;;;;;;19.65;6.95;;;;;;;8.40;62.99;99913.16;5030123;28;20060;-70
2023/02/24 03:16:57;;;;;;;15.80;6.90;;;;;;;8.38;64.03;99903.47;5026248;28;20056;-71
2023/02/24 03:19:36;;;;;;;17.27;7.03;;;;;;;8.34;64.06;99900.53;5029728;28;20079;-70
2023/02/24 03:22:16;;;;;;;24.42;6.75;;;;;;;8.33;64.29;99893.34;5030049;28;20049;-71
2023/02/24 03:24:49;;;;;;;19.67;6.80;;;;;;;8.30;63.73;99896.75;5030168;28;20049;-71
2023/02/24 03:27:24;;;;;;;20.55;7.50;;;;;;;8.25;64.06;99891.31;5030378;28;20045;-71
2023/02/24 03:30:00;;;;;;;18.88;6.32;;;;;;;8.22;63.72;99889.97;5030534;28;20518;-70
2023/02/24 03:32:35;;;;;;;17.85;6.07;;;;;;;8.23;63.52;99893.56;5023458;28;20057;-71
2023/02/24 03:35:15;;;;;;;20.63;6.57;;;;;;;8.17;63.33;99878.16;5024844;28;20052;-71
2023/02/24 03:37:48;;;;;;;17.58;6.40;;;;;;;8.18;64.75;99879.81;5029693;28;20045;-70
2023/02/24 03:40:17;;;;;;;13.65;5.20;;;;;;;8.15;64.80;99886.81;5030237;28;20157;-71
2023/02/24 03:42:47;;;;;;;19.63;5.75;;;;;;;8.17;64.46;99883.72;5030597;28;20426;-71
2023/02/24 03:45:21;;;;;;;19.25;6.47;;;;;;;8.12;64.16;99881.88;5030543;28;20469;-70
2023/02/24 03:47:52;;;;;;;17.75;6.00;;;;;;;8.13;63.29;99873.25;5029375;28;20041;-71
2023/02/24 03:50:22;;;;;;;14.73;5.53;;;;;;;8.10;64.23;99879.41;5030736;28;20058;-76
2023/02/24 03:53:00;;;;;;;18.25;6.20;;;;;;;8.03;63.70;99881.00;5029990;28;20096;-76
2023/02/24 03:55:42;;;;;;;18.65;5.38;;;;;;;8.05;63.21;99875.97;5030258;28;20049;-77
2023/02/24 03:58:21;;;;;;;18.05;8.70;;;;;;;8.04;63.51;99871.53;5017599;28;20053;-76
2023/02/24 04:00:57;;;;;;;17.65;4.90;;;;;;;8.00;62.98;99874.13;5026146;28;20060;-76
2023/02/24 04:03:32;;;;;;;17.17;5.13;;;;;;;7.99;63.92;99871.66;5023685;28;20049;-76
2023/02/24 04:06:10;;;;;;;14.55;5.00;;;;;;;8.00;63.44;99876.91;5030120;28;20041;-76
2023/02/24 04:09:00;;;;;;;19.65;6.00;;;;;;;7.94;62.45;99880.91;5030060;28;20049;-76
2023/02/24 04:11:39;;;;;;;20.23;4.65;;;;;;;7.95;63.00;99871.47;5024516;28;20057;-76
2023/02/24 04:14:12;;;;;;;10.02;4.38;;;;;;;7.92;62.39;99877.63;5027599;28;20046;-75
2023/02/24 04:16:59;;;;;;;13.20;4.13;;;;;;;7.94;61.67;99878.16;5023893;28;20054;-76
2023/02/24 04:19:37;;;;;;;14.57;5.40;;;;;;;7.88;62.63;99873.84;5028515;28;20069;-77
2023/02/24 04:22:23;;;;;;;16.33;4.13;;;;;;;7.89;61.75;99867.16;5030208;28;20045;-76
2023/02/24 04:25:12;;;;;;;10.98;3.17;;;;;;;7.83;61.40;99857.31;5029727;28;20421;-76
2023/02/24 04:27:42;;;;;;;14.23;3.87;;;;;;;7.78;61.90;99857.44;5024327;28;20050;-76
2023/02/24 04:30:12;;;;;;;14.77;4.30;;;;;;;7.79;62.36;99862.69;5029883;28;20057;-76
2023/02/24 04:32:42;;;;;;;12.73;3.88;;;;;;;7.78;62.40;99852.69;5028702;28;20045;-76
2023/02/24 04:35:18;;;;;;;10.90;4.10;;;;;;;7.80;60.63;99846.84;5029313;28;20053;-76
2023/02/24 04:37:46;;;;;;;12.77;3.75;;;;;;;7.76;60.76;99843.06;5029963;28;20056;-76
2023/02/24 04:40:20;;;;;;;10.57;3.58;;;;;;;7.73;60.88;99847.28;5029373;28;20049;-76
2023/02/24 04:42:49;;;;;;;10.63;3.42;;;;;;;7.72;61.28;99856.72;5029796;28;20049;-77
2023/02/24 04:45:19;;;;;;;8.93;3.47;;;;;;;7.73;61.67;99853.63;5033176;28;20049;-76
2023/02/24 04:47:50;;;;;;;14.10;3.85;;;;;;;7.78;60.90;99849.13;5030465;28;20058;-76
2023/02/24 04:50:32;;;;;;;;;;;;;;;;;;;;;
2023/02/24 04:53:05;;;;;;;11.07;3.17;;;;;;;7.77;60.49;99841.91;5028818;28;20049;-76
2023/02/24 04:55:38;;;;;;;10.23;3.00;;;;;;;7.71;60.51;99855.91;5031948;28;20080;-76
2023/02/24 04:58:07;;;;;;;10.63;2.95;;;;;;;7.69;59.65;99835.16;5026008;28;20066;-76
2023/02/24 05:00:40;;;;;;;16.73;3.83;;;;;;;7.65;60.27;99834.97;5032799;28;20080;-76
2023/02/24 05:03:11;;;;;;;14.95;3.50;;;;;;;7.66;59.97;99831.06;5030886;28;20444;-76
2023/02/24 05:05:50;;;;;;;11.00;3.33;;;;;;;7.63;59.79;99825.31;5032355;28;20053;-76
2023/02/24 05:08:19;;;;;;;9.40;3.10;;;;;;;7.57;59.44;99821.84;5032786;28;20060;-77
2023/02/24 05:10:49;;;;;;;11.32;2.80;;;;;;;7.56;60.12;99831.28;5031450;28;20046;-77
2023/02/24 05:13:19;;;;;;;10.90;3.17;;;;;;;7.54;60.20;99816.94;5023089;28;20065;-76
2023/02/24 05:15:51;;;;;;;13.68;3.85;;;;;;;7.54;60.65;99811.38;5033101;28;20061;-76
2023/02/24 05:18:22;;;;;;;11.13;3.08;;;;;;;7.47;59.86;99810.97;5029853;28;20052;-76
2023/02/24 05:23:39;;;;;;;10.32;4.00;;;;;;;7.48;60.34;99809.84;5039708;28;20606;-78
2023/02/24 05:26:09;;;;;;;9.98;3.35;;;;;;;7.51;60.22;99814.75;5030089;28;20053;-77
2023/02/24 05:28:39;;;;;;;10.35;2.70;;;;;;;7.55;61.00;99804.69;5031803;28;20053;-77
2023/02/24 05:31:13;;;;;;;9.45;3.08;;;;;;;7.52;60.54;99795.06;5032395;28;20057;-77
2023/02/24 05:33:42;;;;;;;10.43;2.95;;;;;;;7.54;59.97;99800.31;5031453;28;20486;-77
2023/02/24 05:36:14;;;;;;;9.70;3.23;;;;;;;7.50;60.11;99791.78;5033002;28;20068;-77
2023/02/24 05:38:42;;;;;;;10.80;2.83;;;;;;;7.53;58.84;99798.66;5032282;28;20050;-77
2023/02/24 05:41:18;;;;;;;12.65;3.33;;;;;;;7.51;59.94;99795.38;5031434;28;20056;-77
2023/02/24 05:43:51;;;;;;;12.40;3.10;;;;;;;7.49;60.32;99784.59;5017213;28;20546;-77
2023/02/24 05:46:19;;;;;;;9.25;2.90;;;;;;;7.50;59.53;99788.19;5031001;28;20052;-77
2023/02/24 05:48:50;;;;;;;11.75;3.30;;;;;;;7.51;59.26;99775.97;5032615;28;20128;-77
2023/02/24 05:51:18;;;;;;;13.15;3.97;;;;;;;7.53;59.18;99779.25;5030629;28;20057;-77
2023/02/24 05:53:47;;;;;;;16.83;4.20;;;;;;;7.43;60.22;99774.78;5030947;28;20049;-76
2023/02/24 05:56:18;;;;;;;12.23;3.40;;;;;;;7.44;59.99;99770.84;5027473;28;20137;-76
2023/02/24 05:58:45;;;;;;;9.07;3.03;;;;;;;7.43;60.40;99760.06;5030393;28;20052;-77
2023/02/24 06:01:15;;;;;;;12.80;3.42;;;;;;;7.42;60.62;99762.03;5029336;28;20494;-76
2023/02/24 06:03:46;;;;;;;14.35;3.05;;;;;;;7.44;60.54;99762.53;5031905;28;20049;-76
2023/02/24 06:06:14;;;;;;;11.27;3.80;;;;;;;7.42;60.06;99759.25;5030400;28;20057;-76
2023/02/24 06:08:48;;;;;;;11.93;3.83;;;;;;;7.43;61.13;99763.69;5031940;28;20061;-77
2023/02/24 06:11:19;;;;;;;17.38;4.57;;;;;;;7.44;60.46;99754.22;5031042;28;20057;-77
2023/02/24 06:13:47;;;;;;;16.17;3.70;;;;;;;7.43;60.50;99754.53;5032444;28;20053;-77
2023/02/24 06:16:16;;;;;;;10.82;4.45;;;;;;;7.41;60.42;99752.09;5026184;28;20053;-77
2023/02/24 06:18:48;;;;;;;11.70;3.97;;;;;;;7.43;61.00;99751.75;5029252;28;20069;-77
2023/02/24 06:21:16;;;;;;;13.88;3.90;;;;;;;7.44;61.36;99748.69;5031927;28;20057;-77
2023/02/24 06:23:43;;;;;;;13.18;3.85;;;;;;;7.47;60.27;99738.94;5029364;28;20046;-77
2023/02/24 06:26:11;;;;;;;13.30;4.00;;;;;;;7.52;60.59;99749.91;5029642;28;20064;-76
2023/02/24 06:28:42;;;;;;;14.30;4.25;;;;;;;7.52;60.17;99736.06;5029166;28;20056;-76
2023/02/24 06:31:10;;;;;;;10.68;4.65;;;;;;;7.51;60.00;99731.63;5026089;28;20049;-77
2023/02/24 06:33:39;;;;;;;11.50;3.95;;;;;;;7.51;60.60;99728.84;5029931;28;20060;-77
2023/02/24 06:36:07;;;;;;;15.15;4.30;;;;;;;7.51;60.05;99739.94;5028268;28;20072;-77
2023/02/24 06:38:38;;;;;;;7.93;3.47;;;;;;;7.51;60.24;99739.94;5024232;28;20057;-76
2023/02/24 06:41:09;;;;;;;14.80;4.70;;;;;;;7.46;59.24;99735.34;5029005;28;20049;-76
2023/02/24 06:43:38;;;;;;;13.65;3.90;;;;;;;7.43;59.55;99729.59;5027689;28;20113;-78
2023/02/24 06:46:11;;;;;;;11.07;4.97;;;;;;;7.41;60.04;99729.09;5027085;28;20042;-77
2023/02/24 06:48:39;;;;;;;13.52;4.60;;;;;;;7.41;60.08;99723.53;5029501;28;20065;-77
2023/02/24 06:51:09;;;;;;;13.55;5.20;;;;;;;7.36;59.74;99721.72;5025446;28;20072;-77
2023/02/24 06:53:41;;;;;;;;;;;;;;;7.41;59.31;99726.31;5030550;28;20053;-77
2023/02/24 06:56:13;;;;;;;9.35;4.30;;;;;;;7.34;59.28;99725.94;5029795;28;19921;-77
2023/02/24 06:58:43;;;;;;;14.02;4.65;;;;;;;7.34;59.08;99715.66;5026147;28;20060;-77
2023/02/24 07:01:14;;;;;;;11.70;4.50;;;;;;;7.38;58.35;99715.88;5029834;28;20057;-76
2023/02/24 07:03:46;;;;;;;12.02;4.47;;;;;;;7.24;57.55;99719.47;5030548;28;20461;-75
2023/02/24 07:06:24;;;;;;;13.27;4.50;;;;;;;7.24;57.85;99716.69;5030192;28;20478;-76
2023/02/24 07:08:53;;;;;;;13.32;4.15;;;;;;;7.31;57.41;99717.13;5022286;28;20060;-76
2023/02/24 07:11:20;;;;;;;14.27;4.15;;;;;;;7.29;57.32;99711.06;5030368;28;20509;-77
2023/02/24 07:13:53;;;;;;;9.90;3.88;;;;;;;7.37;57.27;99711.44;5030288;28;20560;-76
2023/02/24 07:16:27;;;;;;;13.30;4.10;;;;;;;7.28;57.58;99705.81;5029125;28;20065;-77
2023/02/24 07:19:01;;;;;;;9.65;3.53;;;;;;;7.29;57.01;99708.28;5029925;28;20053;-77
2023/02/24 07:21:38;;;;;;;13.52;3.80;;;;;;;7.29;57.62;99700.00;5030301;28;20053;-76
2023/02/24 07:24:07;;;;;;;11.32;3.72;;;;;;;7.24;57.67;99702.84;5031038;28;20061;-76
2023/02/24 07:26:40;;;;;;;11.15;4.32;;;;;;;7.32;57.01;99699.34;5030994;28;20049;-76
2023/02/24 07:29:11;;;;;;;9.82;3.80;;;;;;;7.28;56.76;99698.34;5030408;28;20053;-75
2023/02/24 07:31:41;;;;;;;13.50;4.10;;;;;;;7.34;57.75;99701.00;5028324;28;20165;-76
2023/02/24 07:34:08;;;;;;;;;;;;;;;7.36;57.20;99698.75;5028324;28;20041;-77
2023/02/24 07:36:48;;;;;;;12.20;3.63;;;;;;;7.26;57.53;99695.06;5031207;28;20401;-76
2023/02/24 07:39:17;;;;;;;11.25;3.60;;;;;;;7.34;56.68;99685.19;5031514;28;20053;-76
2023/02/24 07:41:48;;;;;;;11.40;3.55;;;;;;;7.40;57.31;99686.72;5031264;28;20426;-76
2023/02/24 07:44:17;;;;;;;9.70;4.15;;;;;;;7.36;57.32;99682.94;5029418;28;20045;-77
2023/02/24 07:46:53;;;;;;;8.80;3.60;;;;;;;7.07;59.09;99673.03;5024921;28;20478;-75
2023/02/24 07:49:24;;;;;;;9.35;3.53;;;;;;;7.24;57.06;99672.38;5011970;28;20061;-76
2023/02/24 07:51:56;;;;;;;10.88;3.40;;;;;;;7.30;57.19;99664.78;5023289;28;20058;-75
2023/02/24 07:54:27;;;;;;;11.68;4.18;;;;;;;7.43;56.91;99657.56;5022227;28;20061;-76
2023/02/24 07:56:57;;;;;;;10.68;3.38;;;;;;;7.48;56.66;99652.72;5020556;28;20057;-76
2023/02/24 07:59:27;;;;;;;9.75;3.80;;;;;;;7.66;57.05;99641.75;5023245;28;20433;-75
2023/02/24 08:01:56;;;;;;;13.35;3.80;;;;;;;7.75;56.57;99644.59;5025419;28;20064;-76
2023/02/24 08:04:26;;;;;;;11.68;3.33;;;;;;;7.69;56.86;99636.41;5027747;28;20053;-76
2023/02/24 08:07:01;;;;;;;12.63;3.55;;;;;;;7.66;56.25;99639.81;5044116;28;20060;-76
2023/02/24 08:12:21;;;;;;;12.23;3.47;;;;;;;7.71;56.18;99631.38;5042524;28;20172;-77
2023/02/24 08:14:50;;;;;;;12.60;4.38;;;;;;;7.74;55.68;99629.91;5040085;28;20417;-76
2023/02/24 08:17:20;;;;;;;7.80;3.20;;;;;;;7.71;56.02;99616.69;5039937;28;20056;-76
2023/02/24 08:19:48;;;;;;;;;;;;;;;7.86;55.28;99615.47;5047089;28;20128;-76
2023/02/24 08:22:23;;;;;;;10.32;2.55;;;;;;;7.91;55.16;99618.09;5047896;28;19928;-75
2023/02/24 08:24:53;;;;;;;10.77;3.38;;;;;;;7.96;54.58;99611.59;5046590;28;20053;-76
2023/02/24 08:27:22;;;;;;;10.23;3.38;;;;;;;7.69;54.30;99614.25;5047828;28;20215;-76
2023/02/24 08:30:00;;;;;;;11.93;3.95;;;;;;;7.80;54.64;99603.69;5046626;28;20048;-77
2023/02/24 08:32:34;;;;;;;10.02;4.07;;;;;;;7.82;53.95;99604.19;5045792;28;20053;-76
2023/02/24 08:35:14;;;;;;;16.17;3.80;;;;;;;7.78;54.32;99589.34;5046122;28;20511;-75
2023/02/24 08:37:45;;;;;;;;;;;;;;;7.70;54.19;99595.66;5044993;28;20163;-77
2023/02/24 08:40:36;;;;;;;11.23;3.40;;;;;;;7.67;54.69;99599.88;5043585;28;19944;-76
2023/02/24 08:43:14;;;;;;;6.65;2.90;;;;;;;7.71;53.76;99588.97;5048893;28;20091;-75
2023/02/24 08:45:44;;;;;;;11.77;3.38;;;;;;;7.75;54.31;99583.59;5083919;28;20051;-76
2023/02/24 08:48:25;;;;;;;14.00;3.63;;;;;;;7.86;55.07;99574.72;5084047;28;20501;-75
2023/02/24 08:50:54;;;;;;;9.77;3.53;;;;;;;8.08;54.23;99576.63;5088855;28;20048;-76
2023/02/24 08:53:21;;;;;;;10.80;3.30;;;;;;;8.09;52.87;99588.53;5090015;28;20477;-75
2023/02/24 08:55:51;;;;;;;13.82;4.43;;;;;;;8.09;52.49;99580.22;5087996;28;20051;-76
2023/02/24 08:58:25;;;;;;;10.98;3.17;;;;;;;8.13;53.39;99567.34;5088999;28;20500;-75
2023/02/24 09:00:55;;;;;;;10.10;3.70;;;;;;;8.16;52.71;99566.69;5081143;28;20606;-75
2023/02/24 09:03:33;;;;;;;;;;;;;;;8.20;53.90;99572.41;5084664;28;20056;-77
2023/02/24 09:06:04;;;;;;;8.45;3.55;;;;;;;8.05;52.54;99571.69;5085367;28;19931;-76
2023/02/24 09:08:37;;;;;;;10.85;3.70;;;;;;;8.00;53.06;99568.22;5085035;28;20057;-77
2023/02/24 09:11:12;;;;;;;9.23;3.28;;;;;;;7.87;52.52;99559.72;5087618;28;20064;-77
2023/02/24 09:13:50;;;;;;;11.23;4.05;;;;;;;7.92;54.16;99556.00;5087236;28;20052;-77
2023/02/24 09:16:51;;;;;;;11.75;3.72;;;;;;;7.90;54.24;99547.97;5087090;28;20059;-77
2023/02/24 09:22:30;;;;;;;11.88;3.80;;;;;;;7.66;53.82;99545.56;5021493;28;20049;-76
2023/02/24 09:27:41;;;;;;;11.45;4.43;;;;;;;7.80;55.12;99545.47;5088040;28;20056;-77
2023/02/24 09:30:24;;;;;;;19.20;4.60;;;;;;;8.04;53.79;99538.72;5085044;28;20052;-76
2023/02/24 09:32:59;;;;;;;12.90;4.93;;;;;;;7.81;54.38;99530.50;5087987;28;20638;-77
2023/02/24 09:35:29;;;;;;;11.68;3.53;;;;;;;7.70;54.05;99538.25;5085458;28;20044;-77
2023/02/24 09:38:04;;;;;;;13.52;4.65;;;;;;;7.65;54.00;99535.63;5085167;28;20503;-77
2023/02/24 09:40:39;;;;;;;9.55;3.90;;;;;;;7.83;53.33;99530.16;5083420;28;20424;-77
2023/02/24 09:43:16;;;;;;;12.00;4.35;;;;;;;8.00;53.63;99524.72;5084871;28;20066;-77
2023/02/24 09:45:52;;;;;;;10.82;3.70;;;;;;;8.14;53.18;99525.38;5086929;28;20048;-77
2023/02/24 09:48:31;;;;;;;9.30;3.67;;;;;;;8.14;52.63;99513.47;5088566;28;20051;-77
2023/02/24 09:51:04;;;;;;;10.00;3.65;;;;;;;8.03;52.68;99501.06;5083791;28;20392;-77
2023/02/24 09:53:51;;;;;;;14.80;4.47;;;;;;;7.99;52.73;99511.16;5088732;28;20044;-76
2023/02/24 09:56:26;;;;;;;8.40;3.58;;;;;;;7.81;52.88;99510.25;5087688;28;20060;-77
2023/02/24 09:59:09;;;;;;;11.95;3.13;;;;;;;7.84;53.59;99501.31;5085563;28;20052;-75
2023/02/24 10:01:51;;;;;;;13.60;4.13;;;;;;;7.86;52.51;99496.28;5085238;28;20404;-75
2023/02/24 10:05:05;;;;;;;11.38;3.55;;;;;;;7.94;52.57;99492.72;5093417;28;20059;-76
2023/02/24 10:07:38;;;;;;;8.98;3.40;;;;;;;8.03;52.62;99487.19;5107948;28;20047;-75
2023/02/24 10:10:29;;;;;;;12.05;3.70;;;;;;;7.69;52.80;99483.97;5106658;28;20543;-75
2023/02/24 10:13:13;;;;;;;10.65;3.58;;;;;;;7.63;52.53;99481.66;5105936;28;20059;-76
2023/02/24 10:15:58;;;;;;;13.20;3.42;;;;;;;7.45;53.45;99475.19;5101640;28;20059;-76
2023/02/24 10:18:34;;;;;;;10.07;2.80;;;;;;;7.32;52.77;99465.84;5107225;28;20518;-77
2023/02/24 10:21:14;;;;;;;11.25;3.30;;;;;;;7.43;53.86;99463.63;5099397;28;20055;-76
2023/02/24 10:23:58;;;;;;;9.45;3.20;;;;;;;7.48;53.09;99455.19;5102552;28;20411;-76
2023/02/24 10:29:28;;;;;;;12.02;3.60;;;;;;;7.48;53.15;99450.47;5040301;28;20052;-76
2023/02/24 10:32:22;;;;;;;11.52;3.15;;;;;;;7.60;53.34;99447.09;5106819;28;20051;-76
2023/02/24 10:34:49;;;;;;;9.50;3.17;;;;;;;7.42;52.27;99453.69;5103575;28;20495;-76
2023/02/24 10:37:21;;;;;;;8.88;3.10;;;;;;;7.50;53.11;99448.19;5104749;28;20411;-75
2023/02/24 10:39:50;;;;;;;8.25;2.55;;;;;;;7.55;53.07;99449.19;5103668;28;20385;-76
2023/02/24 10:42:25;;;;;;;9.05;2.70;;;;;;;7.61;52.25;99443.16;5103913;28;20411;-75
2023/02/24 10:45:10;;;;;;;12.63;3.00;;;;;;;7.72;52.38;99440.94;5105802;28;20415;-76
2023/02/24 10:47:43;;;;;;;7.95;2.42;;;;;;;7.67;52.18;99438.31;5099755;28;20048;-74
2023/02/24 10:50:22;;;;;;;7.78;2.83;;;;;;;7.52;52.32;99431.25;5106337;28;20412;-75
2023/02/24 10:53:09;;;;;;;11.65;3.22;;;;;;;7.65;52.77;99419.22;5103965;28;21106;-76
2023/02/24 10:56:13;;;;;;;7.00;2.67;;;;;;;7.72;53.59;99413.22;5105569;28;20058;-75
2023/02/24 10:58:55;;;;;;;8.73;2.70;;;;;;;7.72;53.53;99414.00;5102743;28;20051;-75
2023/02/24 11:01:39;;;;;;;11.55;3.10;;;;;;;7.64;52.83;99419.53;5107397;28;20059;-75
2023/02/24 11:04:32;;;;;;;10.23;2.97;;;;;;;7.64;53.18;99412.06;5104177;28;20058;-76
2023/02/24 11:07:08;;;;;;;10.40;3.10;;;;;;;7.23;54.48;99413.19;5105695;28;20058;-76
2023/02/24 11:09:42;;;;;;;11.13;3.00;;;;;;;7.16;56.12;99410.06;5101038;28;20051;-75
2023/02/24 11:18:17;;;;;;;10.57;3.03;;;;;;;7.11;57.07;99393.56;5103896;28;20575;-76
2023/02/24 11:20:48;;;;;;;13.43;2.95;;;;;;;7.29;57.71;99383.41;5102250;28;20054;-77
2023/02/24 11:23:18;;;;;;;12.07;2.80;;;;;;;7.18;58.83;99380.09;5103752;28;20048;-78
2023/02/24 11:25:47;;;;;;;;;;;;;;;7.20;58.81;99375.06;5103212;28;20515;-77
2023/02/24 11:28:33;;;;;;;11.68;2.92;;;;;;;7.05;59.63;99367.16;5102200;28;19934;-77
2023/02/24 11:31:13;;;;;;;10.65;3.22;;;;;;;6.99;59.66;99360.13;5101450;28;20060;-76
2023/02/24 11:33:51;;;;;;;9.00;2.70;;;;;;;7.04;59.56;99360.00;5100769;28;20044;-76
2023/02/24 11:36:28;;;;;;;10.27;2.92;;;;;;;6.80;60.47;99352.84;5105066;28;20055;-78
2023/02/24 11:39:09;;;;;;;7.70;2.95;;;;;;;6.86;60.87;99346.03;5105875;28;20058;-78
2023/02/24 11:41:40;;;;;;;11.48;3.33;;;;;;;6.84;61.38;99347.50;5100688;28;20055;-76
2023/02/24 11:44:27;;;;;;;9.20;3.30;;;;;;;6.75;61.60;99335.56;5102233;28;20048;-78
2023/02/24 11:46:57;;;;;;;12.43;3.60;;;;;;;6.75;61.53;99321.75;5099285;28;20057;-76
2023/02/24 11:49:40;;;;;;;8.90;3.40;;;;;;;6.84;61.88;99320.63;5098149;28;20049;-76
2023/02/24 11:52:14;;;;;;;9.65;3.63;;;;;;;6.79;61.36;99320.78;5103418;28;20055;-76
2023/02/24 11:54:45;;;;;;;11.25;4.70;;;;;;;6.74;62.08;99320.09;5108606;27;20039;-77
2023/02/24 11:57:18;;;;;;;12.40;5.03;;;;;;;6.64;62.70;99308.16;5110731;27;20055;-76
2023/02/24 11:59:52;;;;;;;12.93;4.72;;;;;;;6.67;63.35;99313.06;5108500;27;20051;-76
2023/02/24 12:02:38;;;;;;;11.45;4.55;;;;;;;6.53;63.22;99311.50;5105197;27;20059;-75
2023/02/24 12:05:12;;;;;;;13.52;4.40;;;;;;;6.44;63.27;99292.91;5106008;27;20048;-76
2023/02/24 12:07:44;;;;;;;8.88;3.80;;;;;;;6.38;63.64;99288.63;5108835;27;20060;-76
2023/02/24 12:10:18;;;;;;;12.85;4.63;;;;;;;6.56;64.04;99294.28;5110130;28;20063;-70
2023/02/24 12:12:51;;;;;;;10.60;3.90;;;;;;;6.59;64.24;99290.88;5108271;27;20043;-70
2023/02/24 12:15:24;;;;;;;11.38;4.53;;;;;;;6.50;64.69;99291.63;5108787;27;20059;-70
2023/02/24 12:18:00;;;;;;;11.77;4.90;;;;;;;6.41;64.47;99278.91;5110028;28;20063;-70
2023/02/24 12:20:37;;;;;;;9.88;4.70;;;;;;;6.61;64.51;99283.06;5108543;28;20385;-72
2023/02/24 12:23:16;;;;;;;12.43;5.53;;;;;;;6.50;64.29;99275.03;5105209;27;20415;-71
2023/02/24 12:26:05;;;;;;;10.55;4.88;;;;;;;6.47;65.30;99270.16;5102414;28;20047;-71
2023/02/24 12:28:47;;;;;;;15.20;6.13;;;;;;;6.28;65.47;99262.06;5108931;28;20071;-75
2023/02/24 12:31:28;;;;;;;13.50;5.82;;;;;;;6.46;65.59;99262.16;5103583;28;20047;-77
2023/02/24 12:34:07;;;;;;;10.80;5.47;;;;;;;6.46;65.62;99257.44;5102514;28;20051;-77
2023/02/24 12:36:47;;;;;;;13.40;6.60;;;;;;;6.54;65.30;99246.75;5107382;28;20051;-76
2023/02/24 12:39:20;;;;;;;10.23;6.40;;;;;;;6.53;64.91;99251.47;5108296;28;20052;-75
2023/02/24 12:42:01;;;;;;;12.95;7.25;;;;;;;6.47;65.30;99242.50;5105164;28;20051;-75
2023/02/24 12:44:36;;;;;;;11.52;7.18;;;;;;;6.46;66.64;99235.31;5103288;28;20491;-75
2023/02/24 12:47:11;;;;;;;12.95;7.50;;;;;;;6.47;65.32;99234.19;5107938;28;20054;-76